Time;durP1;ratioP1;P1;durP2;ratioP2;P2;SDS_P1;SDS_P2;PMS_P1;PMS_P2;Temp;Humidity;BMP_temperature;BMP_pressure;BME280_temperature;BME280_humidity;BME280_pressure;Samples;Min_cycle;Max_cycle;Signal;HPM_P1;HPM_P2
2021/03/05 00:01:39;;;;;;;64.93;31.88;;;8.00;99.90;;;;;;5031975;28;20069;-91
2021/03/05 00:04:12;;;;;;;63.63;33.05;;;8.00;99.90;;;;;;5005953;28;20037;-91
2021/03/05 00:06:45;;;;;;;65.50;32.78;;;8.00;99.90;;;;;;5017940;28;20421;-91
2021/03/05 00:09:18;;;;;;;67.32;34.45;;;8.00;99.90;;;;;;5013230;28;20049;-91
2021/03/05 00:11:52;;;;;;;67.10;33.80;;;8.00;99.90;;;;;;5015256;28;20069;-91
2021/03/05 00:14:28;;;;;;;71.30;35.53;;;8.00;99.90;;;;;;5016754;28;20095;-91
2021/03/05 00:17:00;;;;;;;66.35;34.60;;;7.90;99.90;;;;;;5011343;28;20060;-91
2021/03/05 00:19:33;;;;;;;69.82;36.28;;;7.90;99.90;;;;;;5015473;28;20049;-92
2021/03/05 00:22:09;;;;;;;67.03;34.90;;;7.90;99.90;;;;;;5025809;28;20103;-91
2021/03/05 00:24:43;;;;;;;66.93;34.70;;;7.90;99.90;;;;;;5013747;28;20046;-91
2021/03/05 00:27:14;;;;;;;69.95;34.70;;;7.90;99.90;;;;;;4998625;28;20053;-91
2021/03/05 00:29:48;;;;;;;74.32;36.13;;;7.80;99.90;;;;;;5022204;28;20046;-91
2021/03/05 00:32:21;;;;;;;73.30;36.55;;;7.80;99.90;;;;;;5001551;28;20046;-91
2021/03/05 00:34:55;;;;;;;70.65;35.78;;;7.70;99.90;;;;;;5019777;28;20049;-91
2021/03/05 00:37:28;;;;;;;70.20;35.78;;;7.70;99.90;;;;;;5014456;28;20049;-91
2021/03/05 00:40:01;;;;;;;75.40;38.08;;;7.60;99.90;;;;;;5018926;28;20041;-91
2021/03/05 00:42:35;;;;;;;70.95;36.83;;;7.60;99.90;;;;;;5008805;28;20120;-91
2021/03/05 00:45:10;;;;;;;81.35;37.92;;;7.60;99.90;;;;;;5002046;28;20045;-90
2021/03/05 00:47:43;;;;;;;71.45;37.60;;;7.60;99.90;;;;;;5019713;28;20049;-91
2021/03/05 00:50:17;;;;;;;75.80;39.75;;;7.60;99.90;;;;;;5014942;28;20041;-92
2021/03/05 00:52:51;;;;;;;78.82;40.65;;;7.50;99.90;;;;;;5020995;28;20049;-91
2021/03/05 00:55:24;;;;;;;80.55;40.83;;;7.50;99.90;;;;;;5011033;28;20100;-92
2021/03/05 00:57:57;;;;;;;80.03;39.88;;;7.50;99.90;;;;;;5023716;28;20065;-91
2021/03/05 01:00:29;;;;;;;83.32;41.13;;;7.50;99.90;;;;;;5017973;28;20042;-91
2021/03/05 01:03:02;;;;;;;86.88;40.13;;;7.50;99.90;;;;;;5021321;28;20041;-91
2021/03/05 01:05:36;;;;;;;84.28;42.35;;;7.50;99.90;;;;;;5009377;28;20046;-91
2021/03/05 01:08:08;;;;;;;80.50;41.97;;;7.50;99.90;;;;;;5014331;28;20038;-92
2021/03/05 01:10:42;;;;;;;81.78;41.88;;;7.50;99.90;;;;;;5033856;28;20448;-91
2021/03/05 01:13:14;;;;;;;78.53;40.97;;;7.50;99.90;;;;;;5017921;28;20052;-91
2021/03/05 01:15:47;;;;;;;79.65;42.35;;;7.50;99.90;;;;;;5020129;28;20501;-91
2021/03/05 01:18:17;;;;;;;83.63;44.00;;;7.50;99.90;;;;;;5014098;28;20397;-91
2021/03/05 01:20:48;;;;;;;85.13;42.80;;;7.50;99.90;;;;;;5018092;28;20049;-91
2021/03/05 01:23:22;;;;;;;82.97;42.88;;;7.50;99.90;;;;;;5008348;28;20049;-91
2021/03/05 01:25:54;;;;;;;79.00;40.13;;;7.50;99.90;;;;;;5028988;28;20118;-91
2021/03/05 01:28:29;;;;;;;82.63;41.22;;;7.40;99.90;;;;;;5019312;28;20070;-91
2021/03/05 01:31:00;;;;;;;78.25;40.00;;;7.40;99.90;;;;;;5022793;28;20041;-91
2021/03/05 01:33:32;;;;;;;78.75;39.22;;;7.40;99.90;;;;;;5011887;28;20049;-91
2021/03/05 01:36:04;;;;;;;79.57;40.60;;;7.30;99.90;;;;;;5020121;28;20126;-91
2021/03/05 01:38:39;;;;;;;82.28;39.60;;;7.30;99.90;;;;;;4985207;28;20038;-91
2021/03/05 01:41:13;;;;;;;75.65;39.53;;;7.30;99.90;;;;;;5008791;28;20050;-91
2021/03/05 01:43:46;;;;;;;75.35;39.05;;;7.30;99.90;;;;;;4997419;28;20528;-91
2021/03/05 01:46:22;;;;;;;82.22;39.35;;;7.20;99.90;;;;;;4997126;28;20514;-92
2021/03/05 01:48:55;;;;;;;77.20;39.33;;;7.20;99.90;;;;;;5013285;28;20042;-91
2021/03/05 01:51:31;;;;;;;74.40;38.25;;;7.20;99.90;;;;;;5001860;28;20364;-91
2021/03/05 01:54:05;;;;;;;74.22;38.60;;;7.20;99.90;;;;;;5009282;28;20039;-92
2021/03/05 01:56:35;;;;;;;74.30;39.25;;;7.10;99.90;;;;;;4991878;28;20035;-91
2021/03/05 01:59:12;;;;;;;77.22;39.70;;;7.10;99.90;;;;;;4993447;28;20050;-90
2021/03/05 02:01:44;;;;;;;79.05;39.75;;;7.10;99.90;;;;;;5000608;28;20476;-92
2021/03/05 02:04:18;;;;;;;75.32;37.65;;;7.10;99.90;;;;;;4985928;28;20132;-91
2021/03/05 02:07:05;;;;;;;70.70;38.63;;;7.00;99.90;;;;;;4997831;28;20053;-91
2021/03/05 02:09:38;;;;;;;71.22;36.58;;;7.00;99.90;;;;;;5002827;28;20156;-92
2021/03/05 02:12:10;;;;;;;75.03;37.38;;;7.00;99.90;;;;;;4974166;28;20042;-91
2021/03/05 02:14:44;;;;;;;73.93;37.30;;;7.00;99.90;;;;;;4998194;28;20116;-91
2021/03/05 02:17:19;;;;;;;71.32;37.05;;;7.00;99.90;;;;;;4999014;28;20096;-91
2021/03/05 02:20:17;;;;;;;69.22;36.55;;;6.90;99.90;;;;;;4995930;28;20052;-91
2021/03/05 02:23:05;;;;;;;65.97;36.47;;;6.90;99.90;;;;;;4991602;28;20053;-91
2021/03/05 02:25:41;;;;;;;70.43;37.72;;;6.90;99.90;;;;;;5010171;28;20042;-91
2021/03/05 02:28:33;;;;;;;71.43;36.60;;;6.80;99.90;;;;;;4990016;28;20439;-91
2021/03/05 02:31:13;;;;;;;69.13;37.65;;;6.80;99.90;;;;;;5020970;28;20510;-91
2021/03/05 02:33:50;;;;;;;65.03;35.13;;;6.80;99.90;;;;;;4996758;28;20317;-91
2021/03/05 02:36:26;;;;;;;65.88;36.35;;;6.80;99.90;;;;;;4885162;28;2922486;-92
2021/03/05 02:39:35;;;;;;;67.38;36.50;;;6.80;99.90;;;;;;5013068;28;20057;-91
2021/03/05 02:42:08;;;;;;;61.22;32.42;;;6.80;99.90;;;;;;4908963;29;20039;-90
2021/03/05 02:44:48;;;;;;;56.85;32.60;;;6.70;99.90;;;;;;4924128;29;20305;-91
2021/03/05 02:47:22;;;;;;;54.97;32.60;;;6.70;99.90;;;;;;4915593;29;20046;-91
2021/03/05 02:49:57;;;;;;;54.33;32.40;;;6.70;99.90;;;;;;4938525;28;20445;-91
2021/03/05 02:52:33;;;;;;;56.38;31.92;;;6.70;99.90;;;;;;4917019;29;20047;-92
2021/03/05 02:55:07;;;;;;;52.50;32.17;;;6.60;99.90;;;;;;4931053;28;20053;-91
2021/03/05 02:57:49;;;;;;;54.35;31.75;;;6.60;99.90;;;;;;4917250;29;20047;-92
2021/03/05 03:00:23;;;;;;;55.58;32.78;;;6.60;99.90;;;;;;4927784;29;20047;-92
2021/03/05 03:02:58;;;;;;;57.10;30.67;;;6.60;99.90;;;;;;4932675;28;20046;-91
2021/03/05 03:05:32;;;;;;;56.22;32.50;;;6.60;99.90;;;;;;4913683;29;20050;-91
2021/03/05 03:08:07;;;;;;;57.35;31.60;;;6.60;99.90;;;;;;4914864;29;20098;-91
2021/03/05 03:10:43;;;;;;;57.75;32.75;;;6.50;99.90;;;;;;4902528;29;20051;-91
2021/03/05 03:13:16;;;;;;;54.97;30.65;;;6.50;99.90;;;;;;4988456;28;20068;-91
2021/03/05 03:15:50;;;;;;;55.67;31.10;;;6.50;99.90;;;;;;5015572;28;20045;-92
2021/03/05 03:18:24;;;;;;;54.63;31.45;;;6.50;99.90;;;;;;5021249;28;20073;-91
2021/03/05 03:20:59;;;;;;;56.13;30.33;;;6.40;99.90;;;;;;5018769;28;20045;-91
2021/03/05 03:23:31;;;;;;;51.28;31.60;;;6.40;99.90;;;;;;5029614;28;20041;-91
2021/03/05 03:26:02;;;;;;;46.67;29.75;;;6.40;99.90;;;;;;5005157;28;20459;-91
2021/03/05 03:28:38;;;;;;;55.40;30.45;;;6.40;99.90;;;;;;5010639;28;20467;-91
2021/03/05 03:31:15;;;;;;;52.53;31.02;;;6.40;99.90;;;;;;5001127;28;20056;-91
2021/03/05 03:33:47;;;;;;;59.92;32.28;;;6.40;99.90;;;;;;5018007;28;20042;-91
2021/03/05 03:36:20;;;;;;;56.35;30.90;;;6.50;99.90;;;;;;5007866;28;20052;-91
2021/03/05 03:38:55;;;;;;;57.63;31.08;;;6.50;99.90;;;;;;5020025;28;20111;-92
2021/03/05 03:41:29;;;;;;;52.58;31.58;;;6.50;99.90;;;;;;5012100;28;20062;-91
2021/03/05 03:44:01;;;;;;;55.60;32.65;;;6.50;99.90;;;;;;5013285;28;20050;-91
2021/03/05 03:46:33;;;;;;;51.55;30.60;;;6.60;99.90;;;;;;5029470;28;20055;-91
2021/03/05 03:49:10;;;;;;;50.47;31.10;;;6.60;99.90;;;;;;5015961;28;20049;-91
2021/03/05 03:51:51;;;;;;;51.60;29.60;;;6.60;99.90;;;;;;5011328;28;20045;-91
2021/03/05 03:54:25;;;;;;;57.40;30.75;;;6.70;99.90;;;;;;5014062;28;20103;-91
2021/03/05 03:57:00;;;;;;;59.72;32.05;;;6.70;99.90;;;;;;5011263;28;20045;-91
2021/03/05 03:59:34;;;;;;;58.35;31.75;;;6.70;99.90;;;;;;5011699;28;20053;-91
2021/03/05 04:02:10;;;;;;;50.63;31.33;;;6.70;99.90;;;;;;5016629;28;20483;-91
2021/03/05 04:04:43;;;;;;;63.13;32.33;;;6.80;99.90;;;;;;5032752;28;20041;-91
2021/03/05 04:07:15;;;;;;;55.55;32.28;;;6.80;99.90;;;;;;5008650;28;20475;-91
2021/03/05 04:09:45;;;;;;;52.40;32.10;;;6.80;99.90;;;;;;5015871;28;20486;-91
2021/03/05 04:12:18;;;;;;;54.90;31.35;;;6.80;99.90;;;;;;5004416;28;20052;-91
2021/03/05 04:14:51;;;;;;;57.72;32.05;;;6.80;99.90;;;;;;5015158;28;20084;-92
2021/03/05 04:17:22;;;;;;;51.55;30.92;;;6.90;99.90;;;;;;5003916;28;20049;-90
2021/03/05 04:19:55;;;;;;;57.70;32.28;;;6.90;99.90;;;;;;5029851;28;20053;-91
2021/03/05 04:22:29;;;;;;;49.10;29.63;;;6.90;99.90;;;;;;5009195;28;20058;-91
2021/03/05 04:25:02;;;;;;;52.10;30.17;;;6.90;99.90;;;;;;5016169;28;20046;-91
2021/03/05 04:27:36;;;;;;;54.22;29.55;;;6.90;99.90;;;;;;5019721;28;20049;-91
2021/03/05 04:30:10;;;;;;;53.90;29.58;;;6.90;99.90;;;;;;5027266;28;20046;-91
2021/03/05 04:32:45;;;;;;;54.88;30.58;;;6.90;99.90;;;;;;5017909;28;20053;-91
2021/03/05 04:35:20;;;;;;;55.17;30.60;;;7.00;99.90;;;;;;5020270;28;20353;-91
2021/03/05 04:37:55;;;;;;;54.45;32.05;;;7.00;99.90;;;;;;5018106;28;20127;-92
2021/03/05 04:40:28;;;;;;;47.30;28.67;;;7.00;99.90;;;;;;5030394;28;20045;-91
2021/03/05 04:43:02;;;;;;;51.45;28.38;;;7.00;99.90;;;;;;5020070;28;20040;-91
2021/03/05 04:45:36;;;;;;;51.22;29.52;;;7.00;99.90;;;;;;5022121;28;20072;-91
2021/03/05 04:48:09;;;;;;;43.72;26.23;;;7.00;99.90;;;;;;5010274;28;20045;-91
2021/03/05 04:50:42;;;;;;;47.20;28.17;;;7.00;99.90;;;;;;5016918;28;20043;-91
2021/03/05 04:53:17;;;;;;;45.80;26.88;;;7.00;99.90;;;;;;5015093;28;20099;-92
2021/03/05 04:55:49;;;;;;;44.22;26.13;;;7.10;99.90;;;;;;5025808;28;20045;-91
2021/03/05 04:58:25;;;;;;;42.55;26.30;;;7.10;99.90;;;;;;5030985;28;20053;-91
2021/03/05 05:01:00;;;;;;;42.78;24.80;;;7.10;99.90;;;;;;5029095;28;20056;-91
2021/03/05 05:03:33;;;;;;;41.60;24.65;;;7.10;99.90;;;;;;5015136;28;20052;-91
2021/03/05 05:06:08;;;;;;;40.67;23.15;;;7.10;99.90;;;;;;5016253;28;20437;-91
2021/03/05 05:08:41;;;;;;;39.42;23.85;;;7.10;99.90;;;;;;5019708;28;20059;-91
2021/03/05 05:11:12;;;;;;;38.63;22.90;;;7.10;99.90;;;;;;5023452;28;20041;-91
2021/03/05 05:13:44;;;;;;;34.53;22.50;;;7.10;99.90;;;;;;5019827;28;20469;-92
2021/03/05 05:16:17;;;;;;;41.30;22.45;;;7.10;99.90;;;;;;5020220;28;20103;-90
2021/03/05 05:18:49;;;;;;;34.53;22.23;;;7.10;99.90;;;;;;5022794;28;20049;-91
2021/03/05 05:21:20;;;;;;;37.42;22.45;;;7.10;99.90;;;;;;5033197;28;20076;-91
2021/03/05 05:23:53;;;;;;;38.33;22.27;;;7.10;99.90;;;;;;5033667;28;20049;-91
2021/03/05 05:26:25;;;;;;;35.85;21.98;;;7.10;99.90;;;;;;5013175;28;20051;-92
2021/03/05 05:28:58;;;;;;;37.20;21.63;;;7.10;99.90;;;;;;5027186;28;20099;-92
2021/03/05 05:31:31;;;;;;;38.35;22.10;;;7.10;99.90;;;;;;5015855;28;20123;-92
2021/03/05 05:34:05;;;;;;;44.22;22.15;;;7.10;99.90;;;;;;5020746;28;20065;-92
2021/03/05 05:36:39;;;;;;;38.10;22.10;;;7.10;99.90;;;;;;5016621;28;20142;-91
2021/03/05 05:39:15;;;;;;;42.42;21.55;;;7.10;99.90;;;;;;5018216;28;20124;-92
2021/03/05 05:41:49;;;;;;;36.75;22.20;;;7.10;99.90;;;;;;5011706;28;20168;-91
2021/03/05 05:44:21;;;;;;;40.60;22.50;;;7.10;99.90;;;;;;5011709;28;20103;-92
2021/03/05 05:46:53;;;;;;;36.78;22.05;;;7.10;99.90;;;;;;5022480;28;20051;-90
2021/03/05 05:49:26;;;;;;;35.50;21.25;;;7.00;99.90;;;;;;5016741;28;20041;-92
2021/03/05 05:52:00;;;;;;;40.47;22.15;;;7.00;99.90;;;;;;5020528;28;20069;-91
2021/03/05 05:54:37;;;;;;;38.53;21.42;;;7.00;99.90;;;;;;5021158;28;20467;-91
2021/03/05 05:57:07;;;;;;;35.47;21.67;;;7.00;99.90;;;;;;5026297;28;20045;-91
2021/03/05 05:59:41;;;;;;;34.13;20.40;;;7.00;99.90;;;;;;5015534;28;20072;-92
2021/03/05 06:02:13;;;;;;;35.13;19.65;;;7.00;99.90;;;;;;5033986;28;20049;-91
2021/03/05 06:04:46;;;;;;;34.38;20.45;;;7.00;99.90;;;;;;5020598;28;20075;-93
2021/03/05 06:07:18;;;;;;;36.42;20.58;;;7.00;99.90;;;;;;5012391;28;20045;-91
2021/03/05 06:10:05;;;;;;;43.60;20.15;;;7.00;99.90;;;;;;5012585;28;20042;-91
2021/03/05 06:12:43;;;;;;;33.33;20.15;;;7.00;99.90;;;;;;5021963;28;20042;-92
2021/03/05 06:15:21;;;;;;;37.70;21.08;;;7.00;99.90;;;;;;5022557;28;20044;-91
2021/03/05 06:17:54;;;;;;;35.88;20.70;;;7.00;99.90;;;;;;5028961;28;20037;-91
2021/03/05 06:20:26;;;;;;;31.83;18.88;;;7.00;99.90;;;;;;5012901;28;20041;-91
2021/03/05 06:23:12;;;;;;;29.50;18.52;;;7.00;99.90;;;;;;5020043;28;20483;-92
2021/03/05 06:25:45;;;;;;;31.85;19.05;;;7.00;99.90;;;;;;5039554;28;20052;-92
2021/03/05 06:28:20;;;;;;;34.33;18.75;;;7.00;99.90;;;;;;5005478;28;20474;-92
2021/03/05 06:30:55;;;;;;;30.48;18.48;;;7.00;99.90;;;;;;5016763;28;20050;-93
2021/03/05 06:33:32;;;;;;;33.92;18.23;;;7.00;99.90;;;;;;4999316;28;20080;-93
2021/03/05 06:36:17;;;;;;;;;;;7.00;99.90;;;;;;5010890;28;20475;-92
2021/03/05 06:38:52;;;;;;;25.13;15.57;;;7.00;99.90;;;;;;5030076;28;19929;-92
2021/03/05 06:41:35;;;;;;;25.88;16.08;;;6.90;99.90;;;;;;5000350;28;20041;-92
2021/03/05 06:44:08;;;;;;;21.90;14.07;;;7.00;99.90;;;;;;5019770;28;20056;-92
2021/03/05 06:46:43;;;;;;;19.35;13.70;;;6.90;99.90;;;;;;5012324;28;20095;-93
2021/03/05 06:49:16;;;;;;;20.75;13.00;;;6.90;99.90;;;;;;5012993;28;20497;-92
2021/03/05 06:51:56;;;;;;;22.30;13.50;;;6.90;99.90;;;;;;5001242;28;20129;-92
2021/03/05 06:54:34;;;;;;;19.70;12.18;;;6.90;99.90;;;;;;5001572;28;20323;-92
2021/03/05 06:57:06;;;;;;;17.27;11.85;;;6.90;99.90;;;;;;5018033;28;20121;-91
2021/03/05 06:59:47;;;;;;;15.05;12.07;;;6.80;99.90;;;;;;5023539;28;20038;-91
2021/03/05 07:02:31;;;;;;;18.52;12.27;;;6.80;99.90;;;;;;5015838;28;22635;-92
2021/03/05 07:05:03;;;;;;;17.08;12.38;;;6.80;99.90;;;;;;5014709;28;20068;-92
2021/03/05 07:07:44;;;;;;;19.63;12.07;;;6.80;99.90;;;;;;5012251;28;20120;-90
2021/03/05 07:10:15;;;;;;;21.15;11.73;;;6.80;99.90;;;;;;5035898;28;20180;-92
2021/03/05 07:13:05;;;;;;;16.85;12.02;;;6.80;99.90;;;;;;5025086;28;20034;-91
2021/03/05 07:15:55;;;;;;;18.95;11.98;;;6.80;99.90;;;;;;5007700;28;20042;-91
2021/03/05 07:18:27;;;;;;;19.98;13.13;;;6.80;99.90;;;;;;5026313;28;20122;-91
2021/03/05 07:20:57;;;;;;;19.73;12.40;;;6.80;99.90;;;;;;5025189;28;20049;-91
2021/03/05 07:23:27;;;;;;;17.27;12.60;;;6.80;99.90;;;;;;5013227;28;20045;-91
2021/03/05 07:26:01;;;;;;;19.85;12.90;;;6.80;99.90;;;;;;5025924;28;20045;-91
2021/03/05 07:28:34;;;;;;;21.83;12.73;;;6.80;99.90;;;;;;5019475;28;20042;-91
2021/03/05 07:31:05;;;;;;;16.92;12.70;;;6.80;99.90;;;;;;5037430;28;20041;-91
2021/03/05 07:33:40;;;;;;;20.52;12.93;;;6.80;99.90;;;;;;5015334;28;20049;-90
2021/03/05 07:36:14;;;;;;;19.33;13.88;;;6.80;99.90;;;;;;5021311;28;20499;-92
2021/03/05 07:38:52;;;;;;;17.92;13.07;;;6.80;99.90;;;;;;5019427;28;20045;-92
2021/03/05 07:41:25;;;;;;;19.83;12.77;;;6.80;99.90;;;;;;5003843;28;20045;-92
2021/03/05 07:43:59;;;;;;;21.73;13.40;;;6.70;99.90;;;;;;5033210;28;20471;-91
2021/03/05 07:46:32;;;;;;;18.73;13.10;;;6.80;99.90;;;;;;5046191;28;20052;-93
2021/03/05 07:49:09;;;;;;;17.08;12.13;;;6.70;99.90;;;;;;5017007;28;20049;-93
2021/03/05 07:51:44;;;;;;;16.45;12.45;;;6.80;99.90;;;;;;5006890;28;20045;-93
2021/03/05 07:54:39;;;;;;;20.33;12.45;;;6.80;99.90;;;;;;5006652;28;20045;-93
2021/03/05 07:57:15;;;;;;;15.85;11.95;;;6.80;99.90;;;;;;5015367;28;20101;-93
2021/03/05 07:59:55;;;;;;;18.73;11.95;;;6.80;99.90;;;;;;5019097;28;20045;-93
2021/03/05 08:02:47;;;;;;;16.20;12.63;;;6.80;99.90;;;;;;5005751;28;20097;-93
2021/03/05 08:05:35;;;;;;;19.73;13.00;;;6.80;99.90;;;;;;5000003;28;20116;-93
2021/03/05 08:08:12;;;;;;;15.57;13.02;;;6.90;99.90;;;;;;5006506;28;20042;-91
2021/03/05 08:10:51;;;;;;;20.83;12.48;;;6.90;99.90;;;;;;5025114;28;20047;-93
2021/03/05 08:13:49;;;;;;;28.80;13.23;;;6.90;99.90;;;;;;5010692;28;20069;-93
2021/03/05 08:16:33;;;;;;;16.08;11.52;;;6.90;99.90;;;;;;5015235;28;20041;-92
2021/03/05 08:19:07;;;;;;;23.30;12.80;;;6.90;99.90;;;;;;5029900;28;20100;-92
2021/03/05 08:22:01;;;;;;;18.05;12.93;;;6.90;99.90;;;;;;4992044;28;20045;-91
2021/03/05 08:24:39;;;;;;;18.77;13.27;;;6.90;99.90;;;;;;5016998;28;20053;-92
2021/03/05 08:27:19;;;;;;;19.38;13.25;;;6.90;99.90;;;;;;5013186;28;20136;-92
2021/03/05 08:30:03;;;;;;;18.10;12.52;;;7.00;99.90;;;;;;5018179;28;20080;-92
2021/03/05 08:32:34;;;;;;;19.27;13.88;;;7.00;99.90;;;;;;5011575;28;20385;-92
2021/03/05 08:35:16;;;;;;;18.17;13.30;;;7.00;99.90;;;;;;5015382;28;20127;-92
2021/03/05 08:38:15;;;;;;;16.45;13.63;;;7.10;99.90;;;;;;5019389;28;20052;-93
2021/03/05 08:40:52;;;;;;;16.35;13.10;;;7.00;99.90;;;;;;5010897;28;20041;-92
2021/03/05 08:43:27;;;;;;;22.45;14.48;;;7.00;99.90;;;;;;5010153;28;20507;-93
2021/03/05 08:46:08;;;;;;;17.88;13.10;;;7.00;99.90;;;;;;5019937;28;20064;-92
2021/03/05 08:48:48;;;;;;;16.98;13.43;;;7.10;99.90;;;;;;5024580;28;20163;-92
2021/03/05 08:51:24;;;;;;;15.33;11.87;;;7.10;99.90;;;;;;4993831;28;20052;-92
2021/03/05 08:54:00;;;;;;;13.73;10.23;;;7.10;99.90;;;;;;5027297;28;20041;-92
2021/03/05 08:56:34;;;;;;;13.25;11.13;;;7.10;99.90;;;;;;4992707;28;20050;-92
2021/03/05 08:59:11;;;;;;;13.98;11.35;;;7.10;99.90;;;;;;5015085;28;20047;-91
2021/03/05 09:01:44;;;;;;;13.10;10.23;;;7.10;99.90;;;;;;5028476;28;20045;-92
2021/03/05 09:04:22;;;;;;;15.63;10.38;;;7.20;99.90;;;;;;5012998;28;20091;-92
2021/03/05 09:06:56;;;;;;;14.02;9.85;;;7.20;99.90;;;;;;5012981;28;20046;-92
2021/03/05 09:09:32;;;;;;;12.13;8.73;;;7.30;99.90;;;;;;4983574;28;20083;-92
2021/03/05 09:12:18;;;;;;;14.02;9.88;;;7.30;99.90;;;;;;5014332;28;20038;-92
2021/03/05 09:15:03;;;;;;;10.82;8.88;;;7.30;99.90;;;;;;5018153;28;20483;-92
2021/03/05 09:17:44;;;;;;;13.70;9.60;;;7.40;99.90;;;;;;5000326;28;20125;-92
2021/03/05 09:20:19;;;;;;;11.35;8.70;;;7.40;99.90;;;;;;5006484;28;20071;-93
2021/03/05 09:22:52;;;;;;;9.95;7.10;;;7.40;99.90;;;;;;4988318;28;20542;-92
2021/03/05 09:25:26;;;;;;;9.15;7.18;;;7.40;99.90;;;;;;4990741;28;20498;-92
2021/03/05 09:28:02;;;;;;;8.90;7.25;;;7.40;99.90;;;;;;5012529;28;20046;-92
2021/03/05 09:30:36;;;;;;;9.70;7.68;;;7.40;99.90;;;;;;5021796;28;20121;-92
2021/03/05 09:33:13;;;;;;;9.02;7.13;;;7.40;99.90;;;;;;5017037;28;20072;-93
2021/03/05 09:35:46;;;;;;;7.10;6.40;;;7.50;99.90;;;;;;5014155;28;20057;-92
2021/03/05 09:38:21;;;;;;;9.13;6.35;;;7.50;99.90;;;;;;5015908;28;20083;-92
2021/03/05 09:40:54;;;;;;;8.18;7.00;;;7.50;99.90;;;;;;5022729;28;20072;-93
2021/03/05 09:43:30;;;;;;;8.60;6.45;;;7.60;99.90;;;;;;5021867;28;20054;-92
2021/03/05 09:46:22;;;;;;;8.75;5.78;;;7.60;99.90;;;;;;5034031;28;20073;-93
2021/03/05 09:48:59;;;;;;;7.20;5.40;;;7.70;99.90;;;;;;5016311;28;20401;-92
2021/03/05 09:51:40;;;;;;;5.90;4.40;;;7.80;99.90;;;;;;5019377;28;20142;-92
2021/03/05 09:54:13;;;;;;;5.63;4.63;;;7.80;99.90;;;;;;5029650;28;20046;-92
2021/03/05 09:56:49;;;;;;;5.72;3.88;;;7.90;99.90;;;;;;5022072;28;20382;-92
2021/03/05 09:59:24;;;;;;;7.55;4.30;;;7.90;99.90;;;;;;5016081;28;20109;-92
2021/03/05 10:02:01;;;;;;;5.60;4.13;;;8.00;99.90;;;;;;5028117;28;20360;-93
2021/03/05 10:04:43;;;;;;;6.03;4.03;;;8.20;99.90;;;;;;5011507;28;20041;-92
2021/03/05 10:07:17;;;;;;;5.85;3.45;;;8.30;99.90;;;;;;5014807;28;20181;-92
2021/03/05 10:09:51;;;;;;;5.70;3.20;;;8.40;99.90;;;;;;5026647;28;20287;-92
2021/03/05 10:12:32;;;;;;;6.72;3.40;;;8.40;99.90;;;;;;5024841;28;20442;-92
2021/03/05 10:15:09;;;;;;;3.72;2.92;;;8.40;99.90;;;;;;5022762;28;20064;-93
2021/03/05 10:17:44;;;;;;;4.50;2.80;;;8.50;99.90;;;;;;5027757;28;20568;-92
2021/03/05 10:20:18;;;;;;;4.20;3.50;;;8.60;99.90;;;;;;5025772;28;20081;-92
2021/03/05 10:22:55;;;;;;;6.30;2.75;;;8.70;99.90;;;;;;5023808;28;20045;-93
2021/03/05 10:25:31;;;;;;;7.65;3.08;;;8.80;99.90;;;;;;5031053;28;20045;-93
2021/03/05 10:28:04;;;;;;;3.63;2.67;;;8.90;99.90;;;;;;5028881;28;20390;-92
2021/03/05 10:30:49;;;;;;;4.75;2.95;;;9.00;99.90;;;;;;5030072;28;20295;-93
2021/03/05 10:33:39;;;;;;;5.35;2.90;;;9.10;99.90;;;;;;5026585;28;20071;-93
2021/03/05 10:36:16;;;;;;;5.68;3.05;;;9.10;99.90;;;;;;5013091;28;20053;-93
2021/03/05 10:38:51;;;;;;;4.07;3.13;;;9.20;99.90;;;;;;5030148;28;20052;-92
2021/03/05 10:41:32;;;;;;;5.05;3.05;;;9.10;99.90;;;;;;5013776;28;20455;-93
2021/03/05 10:44:04;;;;;;;4.93;3.58;;;9.10;99.90;;;;;;5044628;28;20132;-87
2021/03/05 10:46:32;;;;;;;5.03;3.63;;;9.00;99.90;;;;;;5029785;28;20049;-86
2021/03/05 10:48:58;;;;;;;7.97;3.78;;;9.00;99.90;;;;;;5030574;28;20059;-87
2021/03/05 10:51:25;;;;;;;5.38;4.03;;;8.80;99.90;;;;;;5027698;28;20115;-86
2021/03/05 10:53:51;;;;;;;4.45;4.00;;;8.80;99.90;;;;;;5049522;28;20044;-87
2021/03/05 10:56:18;;;;;;;4.97;3.78;;;8.80;99.90;;;;;;5028046;28;20049;-87
2021/03/05 10:58:44;;;;;;;5.82;3.45;;;8.80;99.90;;;;;;5036335;28;20052;-87
2021/03/05 11:01:11;;;;;;;3.75;3.35;;;8.70;99.90;;;;;;5028317;28;20250;-86
2021/03/05 11:03:38;;;;;;;4.78;3.50;;;8.70;99.90;;;;;;5048032;28;20131;-87
2021/03/05 11:06:05;;;;;;;3.42;2.78;;;8.70;99.90;;;;;;5029341;28;20041;-86
2021/03/05 11:08:32;;;;;;;5.38;3.28;;;8.70;99.90;;;;;;5033408;28;20037;-86
2021/03/05 11:11:02;;;;;;;4.93;3.30;;;8.70;99.90;;;;;;5029503;28;20072;-86
2021/03/05 11:13:29;;;;;;;4.65;3.08;;;8.70;99.90;;;;;;5032302;28;20060;-86
2021/03/05 11:15:55;;;;;;;4.13;3.25;;;8.70;99.90;;;;;;5029831;28;20041;-86
2021/03/05 11:18:22;;;;;;;6.43;3.80;;;8.70;99.90;;;;;;5031796;28;20048;-86
2021/03/05 11:20:49;;;;;;;4.05;2.97;;;8.80;99.90;;;;;;5034617;28;20056;-87
2021/03/05 11:23:16;;;;;;;5.57;3.92;;;8.80;99.90;;;;;;5031894;28;20060;-86
2021/03/05 11:25:42;;;;;;;5.38;3.92;;;8.70;99.90;;;;;;5030251;28;20045;-86
2021/03/05 11:28:09;;;;;;;5.00;3.95;;;8.70;99.90;;;;;;5038815;28;20051;-86
2021/03/05 11:30:36;;;;;;;6.53;4.05;;;8.70;99.90;;;;;;5035743;28;20045;-84
2021/03/05 11:33:08;;;;;;;5.20;3.58;;;8.70;99.90;;;;;;5040878;28;20052;-94
2021/03/05 11:35:43;;;;;;;5.22;3.38;;;8.80;99.90;;;;;;5024293;28;20084;-92
2021/03/05 11:38:18;;;;;;;5.90;3.80;;;8.80;99.90;;;;;;5020778;28;20053;-93
2021/03/05 11:40:53;;;;;;;4.88;3.83;;;8.90;99.90;;;;;;5030873;28;20551;-94
2021/03/05 11:43:29;;;;;;;5.47;3.67;;;9.00;99.90;;;;;;5032030;28;20062;-93
2021/03/05 11:46:03;;;;;;;3.78;3.17;;;8.90;99.90;;;;;;5013077;28;20129;-94
2021/03/05 11:48:42;;;;;;;5.03;2.85;;;9.00;99.90;;;;;;5007326;28;20651;-94
2021/03/05 11:51:17;;;;;;;3.55;2.70;;;9.00;99.90;;;;;;5007651;28;20111;-94
2021/03/05 11:53:53;;;;;;;3.42;2.50;;;8.90;99.90;;;;;;5027155;28;20053;-95
2021/03/05 11:56:27;;;;;;;4.97;2.58;;;8.90;99.90;;;;;;5012177;28;20053;-93
2021/03/05 11:58:57;;;;;;;4.18;3.13;;;8.90;99.90;;;;;;5025180;28;20052;-94
2021/03/05 12:01:36;;;;;;;6.13;2.50;;;8.90;99.90;;;;;;5016548;28;20049;-95
2021/03/05 12:04:08;;;;;;;5.50;3.40;;;8.80;99.90;;;;;;5017837;28;20045;-92
2021/03/05 12:06:44;;;;;;;7.05;3.20;;;8.70;99.90;;;;;;5040798;28;20056;-95
2021/03/05 12:09:15;;;;;;;5.38;2.20;;;8.60;99.90;;;;;;5008343;28;20059;-94
2021/03/05 12:11:49;;;;;;;8.10;2.78;;;8.50;99.90;;;;;;5016098;28;20045;-94
2021/03/05 12:14:40;;;;;;;6.20;2.20;;;8.40;99.90;;;;;;5007173;28;20143;-94
2021/03/05 12:17:15;;;;;;;4.53;2.10;;;8.40;99.90;;;;;;5007127;28;20076;-94
2021/03/05 12:19:49;;;;;;;3.92;1.77;;;8.30;99.90;;;;;;5019775;28;20130;-94
2021/03/05 12:22:23;;;;;;;5.90;2.22;;;8.30;99.90;;;;;;5007005;28;20135;-94
2021/03/05 12:24:59;;;;;;;5.97;2.90;;;8.30;99.90;;;;;;5016320;28;20429;-93
2021/03/05 12:27:34;;;;;;;6.10;2.50;;;8.30;99.90;;;;;;5006234;28;20144;-94
2021/03/05 12:30:08;;;;;;;8.73;2.75;;;8.30;99.90;;;;;;5012024;28;20055;-92
2021/03/05 12:32:47;;;;;;;11.43;3.28;;;8.30;99.90;;;;;;5019062;28;20049;-94
2021/03/05 12:35:23;;;;;;;8.30;2.90;;;8.30;99.90;;;;;;5026412;28;20053;-94
2021/03/05 12:38:02;;;;;;;7.60;2.70;;;8.30;99.90;;;;;;4993722;28;20464;-94
2021/03/05 12:40:38;;;;;;;7.65;3.05;;;8.30;99.90;;;;;;4985140;28;20061;-94
2021/03/05 12:43:13;;;;;;;7.22;3.20;;;8.40;99.90;;;;;;4967385;28;20045;-93
2021/03/05 12:45:50;;;;;;;5.53;2.90;;;8.40;99.90;;;;;;4999631;28;20057;-94
2021/03/05 12:48:44;;;;;;;6.63;2.92;;;8.50;99.90;;;;;;5004163;28;20111;-94
2021/03/05 12:51:19;;;;;;;8.10;3.13;;;8.60;99.90;;;;;;4997142;28;20049;-93
2021/03/05 12:53:55;;;;;;;7.57;3.15;;;8.70;99.90;;;;;;5004045;28;20487;-93
2021/03/05 12:56:28;;;;;;;9.55;2.83;;;8.70;99.90;;;;;;4986131;28;20504;-94
2021/03/05 12:59:02;;;;;;;11.25;3.42;;;8.70;99.90;;;;;;4993644;28;20057;-93
2021/03/05 13:01:39;;;;;;;10.48;3.88;;;8.70;99.90;;;;;;4990512;28;20603;-93
2021/03/05 13:04:16;;;;;;;9.30;3.22;;;8.70;99.90;;;;;;4984770;28;20407;-93
2021/03/05 13:06:51;;;;;;;10.23;3.22;;;8.70;99.90;;;;;;4997214;28;20052;-93
2021/03/05 13:09:26;;;;;;;9.18;3.63;;;8.70;99.90;;;;;;4963124;28;20045;-94
2021/03/05 13:12:03;;;;;;;14.55;4.10;;;8.60;99.90;;;;;;4996121;28;20057;-94
2021/03/05 13:14:39;;;;;;;14.20;4.07;;;8.50;99.90;;;;;;4974554;28;20082;-94
2021/03/05 13:17:15;;;;;;;9.90;4.68;;;8.60;99.90;;;;;;4984859;28;20511;-94
2021/03/05 13:19:51;;;;;;;10.65;3.92;;;8.50;99.90;;;;;;4995348;28;20070;-93
2021/03/05 13:22:31;;;;;;;9.75;3.63;;;8.50;99.90;;;;;;4984276;28;20046;-93
2021/03/05 13:25:10;;;;;;;11.53;3.67;;;8.50;99.90;;;;;;4993112;28;20427;-94